Latest Weather Observations for Rocky Gully South

IDW60801

Issued at 9:35 pm WST Wednesday 16 April 2014 (issued every 30 minutes, with the page automatically refreshed every 10 minutes)

About weather observations | Map of weather stations | Latest weather observations for WA | Other Formats
Station Details ID: 009964 Name: ROCKY GULLY Lat: -34.57 Lon: 117.01 Height: 250.0 m
Data from the previous 72 hours. | See also: Recent months at Rocky Gully South
Date/Time
WST
Temp
°C
App
Temp
°C
Dew
Point
Rel
Hum
%
Delta-T
°C
Wind Press
QNH
hPa
Press
MSL
hPa
Rain
since 9 am
mm
Dir
 
Spd
km/h
Gust
km/h
Spd
kts
Gust
kts
16/09:30pm 15.2 13.5 10.0 71 2.7 W 9 15 5 8 - - 0.0
16/09:00pm 14.6 12.5 9.8 73 2.5 WSW 11 19 6 10 - - 0.0
16/08:30pm 13.1 11.8 9.9 81 1.7 W 7 11 4 6 - - 0.0
16/08:00pm 12.5 11.1 9.0 79 1.8 W 6 7 3 4 - - 0.0
16/07:30pm 13.1 11.7 9.5 79 1.9 WSW 7 11 4 6 - - 0.0
16/07:00pm 13.6 12.3 9.3 75 2.2 W 6 9 3 5 - - 0.0
16/06:30pm 14.1 12.8 9.1 72 2.6 W 6 9 3 5 - - 0.0
16/06:00pm 15.0 13.6 9.6 70 2.8 W 7 11 4 6 - - 0.0
16/05:30pm 15.8 14.4 9.7 67 3.2 W 7 9 4 5 - - 0.0
16/05:00pm 17.1 14.9 9.3 60 4.1 W 11 15 6 8 - - 0.0
16/04:30pm 17.4 15.1 9.1 58 4.4 W 11 17 6 9 - - 0.0
16/04:00pm 17.7 15.1 9.3 58 4.4 WSW 13 20 7 11 - - 0.0
16/03:30pm 18.3 16.2 9.6 57 4.6 W 11 17 6 9 - - 0.0
16/03:00pm 18.2 15.9 9.0 55 4.9 W 11 20 6 11 - - 0.0
16/02:30pm 18.3 15.6 9.1 55 4.9 WNW 13 20 7 11 - - 0.0
16/02:00pm 18.1 15.7 10.0 59 4.4 W 13 19 7 10 - - 0.0
16/01:30pm 17.3 14.9 10.0 62 3.9 WNW 13 19 7 10 - - 0.0
16/01:00pm 17.5 15.1 9.9 61 4.1 NW 13 19 7 10 - - 0.0
16/12:30pm 17.2 15.2 10.1 63 3.8 W 11 20 6 11 - - 0.0
16/12:00pm 17.1 14.9 9.5 61 4.0 NW 11 19 6 10 - - 0.0
16/11:30am 17.1 15.4 10.0 63 3.8 W 9 13 5 7 - - 0.0
16/11:00am 16.9 14.9 10.3 65 3.5 WNW 11 17 6 9 - - 0.0
16/10:30am 16.5 15.2 9.9 65 3.5 W 7 11 4 6 - - 0.0
16/10:00am 16.4 15.1 10.0 66 3.4 W 7 13 4 7 - - 0.0
16/09:30am 16.1 15.2 11.3 73 2.6 NW 7 11 4 6 - - 0.0
16/09:00am 15.3 14.6 11.9 80 1.9 NNW 7 11 4 6 - - 0.8
16/08:30am 14.4 13.6 11.7 84 1.5 NNW 7 9 4 5 - - 0.8
16/08:00am 14.1 13.6 12.0 87 1.1 N 6 7 3 4 - - 0.8
16/07:30am 13.4 12.8 11.8 90 0.9 N 6 9 3 5 - - 0.8
16/07:00am 13.0 12.2 11.7 92 0.7 N 7 9 4 5 - - 0.8
16/06:30am 12.8 12.2 11.7 93 0.6 N 6 7 3 4 - - 0.8
16/06:00am 12.6 12.7 11.5 93 0.6 N 2 7 1 4 - - 0.8
16/05:30am 12.5 12.6 11.4 93 0.6 N 2 7 1 4 - - 0.8
16/05:00am 12.6 13.1 11.5 93 0.6 CALM 0 6 0 3 - - 0.8
16/04:30am 12.6 12.7 11.5 93 0.6 N 2 6 1 3 - - 0.8
16/04:00am 12.6 11.9 11.5 93 0.6 N 6 7 3 4 - - 0.8
16/03:30am 12.5 12.9 11.4 93 0.6 CALM 0 0 0 0 - - 0.8
16/03:00am 12.5 12.9 11.4 93 0.6 CALM 0 0 0 0 - - 0.8
16/02:30am 12.3 12.7 11.2 93 0.6 CALM 0 7 0 4 - - 0.8
16/02:00am 12.1 12.4 11.0 93 0.6 CALM 0 0 0 0 - - 0.8
16/01:30am 11.9 12.2 10.8 93 0.6 CALM 0 0 0 0 - - 0.8
16/01:00am 11.9 11.4 10.8 93 0.6 NNW 4 6 2 3 - - 0.8
16/12:30am 11.7 11.5 10.6 93 0.6 WNW 2 6 1 3 - - 0.8
16/12:00am 11.5 11.6 10.2 92 0.7 CALM 0 6 0 3 - - 0.8
 
Date/Time
WST
Temp
°C
App
Temp
°C
Dew
Point
Rel
Hum
%
Delta-T
°C
Wind Press
QNH
hPa
Press
MSL
hPa
Rain
since 9 am
mm
Dir
 
Spd
km/h
Gust
km/h
Spd
kts
Gust
kts
15/11:30pm 11.7 11.9 10.4 92 0.7 CALM 0 0 0 0 - - 0.8
15/11:00pm 11.8 12.0 10.4 91 0.7 CALM 0 0 0 0 - - 0.8
15/10:30pm 12.3 12.5 10.7 90 0.8 CALM 0 0 0 0 - - 0.8
15/10:00pm 13.1 12.4 11.3 89 1.0 SW 6 7 3 4 - - 0.8
15/09:30pm 13.9 13.4 12.1 89 1.0 WSW 6 7 3 4 - - 0.8
15/09:00pm 14.6 14.8 13.0 90 0.9 SW 4 9 2 5 - - 0.8
15/08:30pm 14.8 14.5 13.2 90 0.9 SW 7 9 4 5 - - 0.8
15/08:00pm 15.2 15.0 13.7 91 0.9 SW 7 11 4 6 - - 0.8
15/07:30pm 15.3 14.8 13.8 91 0.9 SSW 9 13 5 7 - - 0.8
15/07:00pm 15.5 14.7 14.0 91 0.9 SW 11 20 6 11 - - 0.8
15/06:30pm 15.5 14.3 13.9 90 0.9 SW 13 20 7 11 - - 0.8
15/06:00pm 16.5 15.2 14.9 90 0.9 SW 15 24 8 13 - - 0.8
15/05:30pm 18.1 17.6 14.8 81 1.9 WSW 11 22 6 12 - - 0.0
15/05:00pm 20.0 18.3 13.5 66 3.8 WSW 15 24 8 13 - - 0.0
15/04:30pm 20.3 18.3 12.8 62 4.3 WSW 15 28 8 15 - - 0.0
15/04:00pm 22.0 20.4 12.8 56 5.3 W 13 26 7 14 - - 0.0
15/03:30pm 20.9 19.4 13.1 61 4.5 W 13 22 7 12 - - 0.0
15/03:00pm 21.5 20.0 13.2 59 4.8 W 13 22 7 12 - - 0.0
15/02:30pm 21.0 18.0 12.4 58 4.9 W 20 32 11 17 - - 0.0
15/02:00pm 21.1 18.6 12.3 57 5.0 WNW 17 26 9 14 - - 0.0
15/01:30pm 20.7 18.4 11.9 57 5.0 W 15 26 8 14 - - 0.0
15/01:00pm 20.8 19.2 12.8 60 4.6 WNW 13 26 7 14 - - 0.0
15/12:30pm 19.7 17.7 12.7 64 4.0 W 15 26 8 14 - - 0.0
15/12:00pm 19.6 17.2 12.6 64 4.0 W 17 32 9 17 - - 0.0
15/11:30am 19.9 17.7 12.2 61 4.4 W 15 28 8 15 - - 0.0
15/11:00am 20.3 18.2 12.3 60 4.5 W 15 24 8 13 - - 0.0
15/10:30am 19.1 17.0 12.4 65 3.8 W 15 28 8 15 - - 0.0
15/10:00am 18.3 16.1 13.2 72 2.9 W 17 30 9 16 - - 0.0
15/09:30am 18.1 16.0 13.6 75 2.6 W 17 30 9 16 - - 0.0
15/09:00am 17.9 17.2 14.4 80 2.0 WNW 11 20 6 11 - - 0.0
15/08:30am 17.6 16.5 14.3 81 1.9 WNW 13 22 7 12 - - 0.0
15/08:00am 17.3 16.8 14.9 86 1.4 WNW 11 19 6 10 - - 0.0
15/07:30am 16.7 16.1 14.7 88 1.2 NNW 11 15 6 8 - - 0.0
15/07:00am 16.3 16.0 14.5 89 1.0 NW 9 13 5 7 - - 0.0
15/06:30am 16.2 15.9 14.4 89 1.0 NNW 9 15 5 8 - - 0.0
15/06:00am 16.5 16.3 14.7 89 1.0 NNW 9 15 5 8 - - 0.0
15/05:30am 16.5 16.0 14.9 90 0.9 NW 11 17 6 9 - - 0.0
15/05:00am 16.4 16.3 14.9 91 0.9 NW 9 17 5 9 - - 0.0
15/04:30am 16.4 15.9 14.9 91 0.9 NW 11 17 6 9 - - 0.0
15/04:00am 16.4 16.3 14.9 91 0.9 WNW 9 17 5 9 - - 0.0
15/03:30am 16.2 15.6 14.7 91 0.9 WNW 11 19 6 10 - - 0.0
15/03:00am 16.4 16.7 14.9 91 0.9 WNW 7 13 4 7 - - 0.0
15/02:30am 16.2 16.1 14.9 92 0.8 WNW 9 15 5 8 - - 0.0
15/02:00am 15.9 15.7 14.8 93 0.6 WNW 9 15 5 8 - - 0.0
15/01:30am 15.8 15.9 14.5 92 0.8 NW 7 11 4 6 - - 0.0
15/01:00am 15.8 16.0 14.7 93 0.6 NW 7 9 4 5 - - 0.0
15/12:30am 15.5 15.5 14.2 92 0.7 NW 7 11 4 6 - - 0.0
15/12:00am 14.9 14.9 13.6 92 0.7 NNW 6 9 3 5 - - 0.0
 
Date/Time
WST
Temp
°C
App
Temp
°C
Dew
Point
Rel
Hum
%
Delta-T
°C
Wind Press
QNH
hPa
Press
MSL
hPa
Rain
since 9 am
mm
Dir
 
Spd
km/h
Gust
km/h
Spd
kts
Gust
kts
14/11:30pm 14.9 16.0 13.4 91 0.8 CALM 0 4 0 2 - - 0.0
14/11:00pm 15.6 15.8 14.1 91 0.9 NW 6 7 3 4 - - 0.0
14/10:30pm 16.1 16.3 14.3 89 1.0 NNE 6 7 3 4 - - 0.0
14/10:00pm 16.7 17.0 14.5 87 1.3 NE 6 9 3 5 - - 0.0
14/09:30pm 17.8 19.6 15.4 86 1.4 CALM 0 0 0 0 - - 0.0
14/09:00pm 17.9 18.6 15.5 86 1.4 SSE 6 7 3 4 - - 0.0
14/08:30pm 17.8 18.3 15.6 87 1.3 SSE 7 11 4 6 - - 0.0
14/08:00pm 17.5 17.9 15.3 87 1.3 SSE 7 9 4 5 - - 0.0
14/07:30pm 17.8 17.2 15.6 87 1.3 S 13 19 7 10 - - 0.0
14/07:00pm 18.1 17.8 15.5 85 1.5 SSE 11 15 6 8 - - 0.0
14/06:30pm 18.9 18.7 15.6 81 2.0 S 11 15 6 8 - - 0.0
14/06:00pm 20.1 19.6 15.9 77 2.5 SSE 13 19 7 10 - - 0.0
14/05:30pm 21.4 20.4 15.5 69 3.6 S 15 26 8 14 - - 0.0
14/05:00pm 23.2 21.8 15.5 62 4.7 S 17 22 9 12 - - 0.0
14/04:30pm 26.6 24.9 13.7 45 7.7 WSW 15 22 8 12 - - 0.0
14/04:00pm 29.6 26.7 9.7 29 11.3 NW 15 22 8 12 - - 0.0
14/03:30pm 29.9 27.6 10.5 30 11.2 NNW 13 22 7 12 - - 0.0
14/03:00pm 30.5 28.4 9.9 28 11.8 NNW 11 26 6 14 - - 0.0
14/02:30pm 29.2 27.8 10.8 32 10.6 N 9 17 5 9 - - 0.0
14/02:00pm 29.8 27.9 10.4 30 11.1 NW 11 19 6 10 - - 0.0
14/01:30pm 29.0 27.9 12.0 35 10.0 NW 9 15 5 8 - - 0.0
14/01:00pm 28.1 27.1 12.4 37 9.2 N 9 15 5 8 - - 0.0
14/12:30pm 27.5 26.4 13.1 41 8.6 W 11 17 6 9 - - 0.0
14/12:00pm 26.8 26.7 13.9 45 7.7 S 7 15 4 8 - - 0.0
14/11:30am 24.9 24.4 12.8 47 7.1 N 7 11 4 6 - - 0.0
14/11:00am 24.2 23.6 13.4 51 6.4 NNW 9 11 5 6 - - 0.0
14/10:30am 22.6 21.9 13.1 55 5.5 N 9 15 5 8 - - 0.0
14/10:00am 21.6 20.7 13.8 61 4.6 N 11 17 6 9 - - 0.0
14/09:30am 20.7 20.3 14.1 66 3.9 NE 9 15 5 8 - - 0.0
14/09:00am 19.1 19.1 14.1 73 2.9 NNE 7 13 4 7 - - 0.0
14/08:30am 17.3 16.8 13.8 80 2.0 NE 9 15 5 8 - - 0.0
14/08:00am 16.7 16.1 13.6 82 1.8 NE 9 13 5 7 - - 0.0
14/07:30am 16.5 16.4 13.8 84 1.5 NE 7 13 4 7 - - 0.0
14/07:00am 16.5 16.4 13.8 84 1.5 NE 7 11 4 6 - - 0.0
14/06:30am 16.4 16.2 13.7 84 1.5 NE 7 11 4 6 - - 0.0
14/06:00am 16.5 15.6 13.8 84 1.5 NE 11 17 6 9 - - 0.0
14/05:30am 16.5 15.2 13.8 84 1.5 ENE 13 20 7 11 - - 0.0
14/05:00am 16.6 16.1 13.9 84 1.5 ENE 9 17 5 9 - - 0.0
14/04:30am 16.6 16.6 14.1 85 1.4 ENE 7 13 4 7 - - 0.0
14/04:00am 16.6 16.6 14.1 85 1.4 ENE 7 13 4 7 - - 0.0
14/03:30am 16.6 15.8 13.9 84 1.5 ENE 11 17 6 9 - - 0.0
14/03:00am 16.7 16.6 14.0 84 1.6 E 7 13 4 7 - - 0.0
14/02:30am 16.8 16.4 14.1 84 1.6 ENE 9 15 5 8 - - 0.0
14/02:00am 16.8 16.0 14.1 84 1.6 E 11 20 6 11 - - 0.0
14/01:30am 16.8 16.5 14.3 85 1.4 E 9 22 5 12 - - 0.0
14/01:00am 16.6 16.2 14.2 86 1.4 E 9 19 5 10 - - 0.0
14/12:30am 16.4 15.7 14.4 88 1.2 E 11 20 6 11 - - 0.0
14/12:00am 15.9 16.0 14.4 91 0.9 E 7 13 4 7 - - 0.0
 
Date/Time
WST
Temp
°C
App
Temp
°C
Dew
Point
Rel
Hum
%
Delta-T
°C
Wind Press
QNH
hPa
Press
MSL
hPa
Rain
since 9 am
mm
Dir
 
Spd
km/h
Gust
km/h
Spd
kts
Gust
kts
13/11:30pm 15.5 15.4 14.0 91 0.9 E 7 15 4 8 - - 0.0
13/11:00pm 15.2 15.0 13.7 91 0.9 E 7 13 4 7 - - 0.0
13/10:30pm 15.1 14.9 13.6 91 0.8 E 7 11 4 6 - - 0.0
13/10:00pm 15.3 14.8 13.8 91 0.9 ESE 9 15 5 8 - - 0.0

Other Formats:

Comma delimited format used in spreadsheet applications
http://www.bom.gov.au/fwo/IDW60801/IDW60801.94631.axf

JavaScript Object Notation format (JSON) in row-major order
http://www.bom.gov.au/fwo/IDW60801/IDW60801.94631.json